Terminal Aerodrome Forecast
Issued by NWS Wichita, KS

Home | Current Version | Previous Version | Text Only | Print | Product List | Glossary On
Versions: 1 2 3 4 5 6 7 8 9 10 11 12 13 14
000
FTUS43 KICT 130500
TAFICT
TAF
KICT 130520Z 1306/1406 03009KT P6SM OVC035
     FM130800 02007KT P6SM SCT035
     FM131400 12007KT P6SM SKC
     FM131700 17013KT P6SM SCT080=

USA.gov is the U.S. government's official web portal to all federal, state and local government web resources and services.